sensor_id;sensor_type;location;lat;lon;timestamp;P1;durP1;ratioP1;P2;durP2;ratioP2
4911;SDS011;2471;47.056;8.350;2023-12-20T00:01:34;28.60;;;20.50;;
4911;SDS011;2471;47.056;8.350;2023-12-20T00:04:01;29.63;;;20.80;;
4911;SDS011;2471;47.056;8.350;2023-12-20T00:06:27;26.92;;;20.40;;
4911;SDS011;2471;47.056;8.350;2023-12-20T00:08:53;26.52;;;20.65;;
4911;SDS011;2471;47.056;8.350;2023-12-20T00:11:19;26.30;;;19.97;;
4911;SDS011;2471;47.056;8.350;2023-12-20T00:13:44;27.00;;;18.90;;
4911;SDS011;2471;47.056;8.350;2023-12-20T00:16:10;26.50;;;20.27;;
4911;SDS011;2471;47.056;8.350;2023-12-20T00:18:36;27.00;;;19.60;;
4911;SDS011;2471;47.056;8.350;2023-12-20T00:21:03;27.77;;;20.13;;
4911;SDS011;2471;47.056;8.350;2023-12-20T00:23:29;26.90;;;19.50;;
4911;SDS011;2471;47.056;8.350;2023-12-20T00:25:55;26.60;;;19.88;;
4911;SDS011;2471;47.056;8.350;2023-12-20T00:28:21;27.13;;;19.03;;
4911;SDS011;2471;47.056;8.350;2023-12-20T00:30:48;26.83;;;19.10;;
4911;SDS011;2471;47.056;8.350;2023-12-20T00:33:13;27.95;;;19.70;;
4911;SDS011;2471;47.056;8.350;2023-12-20T00:35:39;27.85;;;20.05;;
4911;SDS011;2471;47.056;8.350;2023-12-20T00:38:06;25.08;;;18.88;;
4911;SDS011;2471;47.056;8.350;2023-12-20T00:40:33;26.65;;;18.65;;
4911;SDS011;2471;47.056;8.350;2023-12-20T00:42:59;27.75;;;20.35;;
4911;SDS011;2471;47.056;8.350;2023-12-20T00:45:25;25.08;;;19.52;;
4911;SDS011;2471;47.056;8.350;2023-12-20T00:47:51;25.98;;;19.30;;
4911;SDS011;2471;47.056;8.350;2023-12-20T00:50:17;27.00;;;19.55;;
4911;SDS011;2471;47.056;8.350;2023-12-20T00:52:43;26.15;;;19.52;;
4911;SDS011;2471;47.056;8.350;2023-12-20T00:55:09;25.23;;;19.55;;
4911;SDS011;2471;47.056;8.350;2023-12-20T00:57:35;23.85;;;18.63;;
4911;SDS011;2471;47.056;8.350;2023-12-20T01:00:01;27.65;;;19.63;;
4911;SDS011;2471;47.056;8.350;2023-12-20T01:02:27;28.13;;;20.33;;
4911;SDS011;2471;47.056;8.350;2023-12-20T01:04:54;29.30;;;20.67;;
4911;SDS011;2471;47.056;8.350;2023-12-20T01:07:20;30.42;;;20.92;;
4911;SDS011;2471;47.056;8.350;2023-12-20T01:09:46;26.60;;;18.30;;
4911;SDS011;2471;47.056;8.350;2023-12-20T01:12:12;27.23;;;19.52;;
4911;SDS011;2471;47.056;8.350;2023-12-20T01:14:38;28.23;;;20.60;;
4911;SDS011;2471;47.056;8.350;2023-12-20T01:17:04;28.58;;;19.92;;
4911;SDS011;2471;47.056;8.350;2023-12-20T01:19:30;29.55;;;20.48;;
4911;SDS011;2471;47.056;8.350;2023-12-20T01:21:56;26.52;;;19.30;;
4911;SDS011;2471;47.056;8.350;2023-12-20T01:24:22;31.00;;;21.85;;
4911;SDS011;2471;47.056;8.350;2023-12-20T01:26:48;28.30;;;20.48;;
4911;SDS011;2471;47.056;8.350;2023-12-20T01:29:15;29.85;;;21.45;;
4911;SDS011;2471;47.056;8.350;2023-12-20T01:31:41;27.75;;;19.65;;
4911;SDS011;2471;47.056;8.350;2023-12-20T01:34:07;28.50;;;20.90;;
4911;SDS011;2471;47.056;8.350;2023-12-20T01:36:33;27.43;;;19.77;;
4911;SDS011;2471;47.056;8.350;2023-12-20T01:38:59;28.33;;;20.67;;
4911;SDS011;2471;47.056;8.350;2023-12-20T01:41:25;30.43;;;21.40;;
4911;SDS011;2471;47.056;8.350;2023-12-20T01:43:51;26.50;;;19.37;;
4911;SDS011;2471;47.056;8.350;2023-12-20T01:46:18;29.50;;;20.80;;
4911;SDS011;2471;47.056;8.350;2023-12-20T01:48:44;28.73;;;20.75;;
4911;SDS011;2471;47.056;8.350;2023-12-20T01:51:10;30.50;;;20.25;;
4911;SDS011;2471;47.056;8.350;2023-12-20T01:53:36;29.80;;;22.67;;
4911;SDS011;2471;47.056;8.350;2023-12-20T01:56:03;33.55;;;23.67;;
4911;SDS011;2471;47.056;8.350;2023-12-20T01:58:29;32.50;;;21.17;;
4911;SDS011;2471;47.056;8.350;2023-12-20T02:00:55;25.55;;;18.90;;
4911;SDS011;2471;47.056;8.350;2023-12-20T02:03:21;24.48;;;18.65;;
4911;SDS011;2471;47.056;8.350;2023-12-20T02:05:47;25.08;;;19.63;;
4911;SDS011;2471;47.056;8.350;2023-12-20T02:08:13;26.98;;;20.02;;
4911;SDS011;2471;47.056;8.350;2023-12-20T02:10:39;26.65;;;19.48;;
4911;SDS011;2471;47.056;8.350;2023-12-20T02:13:06;26.13;;;18.70;;
4911;SDS011;2471;47.056;8.350;2023-12-20T02:15:32;26.67;;;19.40;;
4911;SDS011;2471;47.056;8.350;2023-12-20T02:17:58;28.50;;;20.70;;
4911;SDS011;2471;47.056;8.350;2023-12-20T02:20:24;27.55;;;19.70;;
4911;SDS011;2471;47.056;8.350;2023-12-20T02:22:50;28.60;;;20.23;;
4911;SDS011;2471;47.056;8.350;2023-12-20T02:25:16;26.42;;;19.75;;
4911;SDS011;2471;47.056;8.350;2023-12-20T02:27:42;25.50;;;19.50;;
4911;SDS011;2471;47.056;8.350;2023-12-20T02:30:08;25.13;;;19.25;;
4911;SDS011;2471;47.056;8.350;2023-12-20T02:32:34;26.05;;;18.90;;
4911;SDS011;2471;47.056;8.350;2023-12-20T02:35:00;25.23;;;17.92;;
4911;SDS011;2471;47.056;8.350;2023-12-20T02:37:26;26.58;;;18.83;;
4911;SDS011;2471;47.056;8.350;2023-12-20T02:39:52;25.88;;;18.85;;
4911;SDS011;2471;47.056;8.350;2023-12-20T02:42:18;23.00;;;17.20;;
4911;SDS011;2471;47.056;8.350;2023-12-20T02:44:44;23.55;;;18.23;;
4911;SDS011;2471;47.056;8.350;2023-12-20T02:47:10;24.40;;;17.90;;
4911;SDS011;2471;47.056;8.350;2023-12-20T02:49:36;28.05;;;18.90;;
4911;SDS011;2471;47.056;8.350;2023-12-20T02:52:02;24.37;;;17.53;;
4911;SDS011;2471;47.056;8.350;2023-12-20T02:54:28;26.13;;;19.02;;
4911;SDS011;2471;47.056;8.350;2023-12-20T02:56:54;28.05;;;19.60;;
4911;SDS011;2471;47.056;8.350;2023-12-20T02:59:20;28.77;;;18.38;;
4911;SDS011;2471;47.056;8.350;2023-12-20T03:01:46;23.38;;;17.75;;
4911;SDS011;2471;47.056;8.350;2023-12-20T03:04:12;25.38;;;18.90;;
4911;SDS011;2471;47.056;8.350;2023-12-20T03:06:38;30.23;;;19.27;;
4911;SDS011;2471;47.056;8.350;2023-12-20T03:09:04;25.55;;;18.80;;
4911;SDS011;2471;47.056;8.350;2023-12-20T03:11:31;25.98;;;20.15;;
4911;SDS011;2471;47.056;8.350;2023-12-20T03:13:57;25.17;;;19.40;;
4911;SDS011;2471;47.056;8.350;2023-12-20T03:16:23;25.35;;;18.58;;
4911;SDS011;2471;47.056;8.350;2023-12-20T03:18:49;24.15;;;18.80;;
4911;SDS011;2471;47.056;8.350;2023-12-20T03:21:15;26.30;;;18.40;;
4911;SDS011;2471;47.056;8.350;2023-12-20T03:23:41;21.77;;;17.63;;
4911;SDS011;2471;47.056;8.350;2023-12-20T03:26:07;27.77;;;19.15;;
4911;SDS011;2471;47.056;8.350;2023-12-20T03:28:34;24.87;;;18.50;;
4911;SDS011;2471;47.056;8.350;2023-12-20T03:31:00;28.15;;;18.50;;
4911;SDS011;2471;47.056;8.350;2023-12-20T03:33:27;23.10;;;17.65;;
4911;SDS011;2471;47.056;8.350;2023-12-20T03:35:53;24.17;;;18.58;;
4911;SDS011;2471;47.056;8.350;2023-12-20T03:38:19;27.02;;;19.50;;
4911;SDS011;2471;47.056;8.350;2023-12-20T03:40:45;23.10;;;17.70;;
4911;SDS011;2471;47.056;8.350;2023-12-20T03:43:11;24.67;;;18.75;;
4911;SDS011;2471;47.056;8.350;2023-12-20T03:45:37;29.80;;;18.27;;
4911;SDS011;2471;47.056;8.350;2023-12-20T03:48:03;26.95;;;19.73;;
4911;SDS011;2471;47.056;8.350;2023-12-20T03:50:29;24.83;;;19.20;;
4911;SDS011;2471;47.056;8.350;2023-12-20T03:52:55;23.92;;;18.98;;
4911;SDS011;2471;47.056;8.350;2023-12-20T03:55:21;27.52;;;19.10;;
4911;SDS011;2471;47.056;8.350;2023-12-20T03:57:47;24.30;;;18.95;;
4911;SDS011;2471;47.056;8.350;2023-12-20T04:00:13;27.55;;;19.75;;
4911;SDS011;2471;47.056;8.350;2023-12-20T04:02:40;28.15;;;19.98;;
4911;SDS011;2471;47.056;8.350;2023-12-20T04:05:06;26.35;;;19.60;;
4911;SDS011;2471;47.056;8.350;2023-12-20T04:07:33;26.25;;;20.02;;
4911;SDS011;2471;47.056;8.350;2023-12-20T04:09:59;27.55;;;20.20;;
4911;SDS011;2471;47.056;8.350;2023-12-20T04:12:25;25.38;;;18.92;;
4911;SDS011;2471;47.056;8.350;2023-12-20T04:14:51;27.05;;;20.40;;
4911;SDS011;2471;47.056;8.350;2023-12-20T04:17:17;25.55;;;19.17;;
4911;SDS011;2471;47.056;8.350;2023-12-20T04:19:44;26.25;;;19.77;;
4911;SDS011;2471;47.056;8.350;2023-12-20T04:22:09;27.02;;;20.08;;
4911;SDS011;2471;47.056;8.350;2023-12-20T04:24:35;26.60;;;18.20;;
4911;SDS011;2471;47.056;8.350;2023-12-20T04:27:02;25.10;;;19.20;;
4911;SDS011;2471;47.056;8.350;2023-12-20T04:29:28;26.85;;;19.17;;
4911;SDS011;2471;47.056;8.350;2023-12-20T04:31:54;23.30;;;18.55;;
4911;SDS011;2471;47.056;8.350;2023-12-20T04:34:20;28.13;;;19.73;;
4911;SDS011;2471;47.056;8.350;2023-12-20T04:36:46;25.88;;;18.67;;
4911;SDS011;2471;47.056;8.350;2023-12-20T04:39:12;26.10;;;19.38;;
4911;SDS011;2471;47.056;8.350;2023-12-20T04:41:40;27.77;;;19.95;;
4911;SDS011;2471;47.056;8.350;2023-12-20T04:44:06;31.60;;;20.83;;
4911;SDS011;2471;47.056;8.350;2023-12-20T04:46:32;28.48;;;20.42;;
4911;SDS011;2471;47.056;8.350;2023-12-20T04:48:57;28.00;;;20.92;;
4911;SDS011;2471;47.056;8.350;2023-12-20T04:51:23;26.90;;;19.80;;
4911;SDS011;2471;47.056;8.350;2023-12-20T04:53:49;27.73;;;21.17;;
4911;SDS011;2471;47.056;8.350;2023-12-20T04:56:15;31.27;;;21.92;;
4911;SDS011;2471;47.056;8.350;2023-12-20T04:58:42;26.75;;;20.35;;
4911;SDS011;2471;47.056;8.350;2023-12-20T05:01:08;28.63;;;20.02;;
4911;SDS011;2471;47.056;8.350;2023-12-20T05:03:34;27.60;;;21.60;;
4911;SDS011;2471;47.056;8.350;2023-12-20T05:06:00;32.22;;;21.40;;
4911;SDS011;2471;47.056;8.350;2023-12-20T05:08:26;33.08;;;22.02;;
4911;SDS011;2471;47.056;8.350;2023-12-20T05:10:53;30.63;;;21.40;;
4911;SDS011;2471;47.056;8.350;2023-12-20T05:13:20;30.83;;;21.30;;
4911;SDS011;2471;47.056;8.350;2023-12-20T05:15:46;29.95;;;21.88;;
4911;SDS011;2471;47.056;8.350;2023-12-20T05:18:12;32.08;;;22.10;;
4911;SDS011;2471;47.056;8.350;2023-12-20T05:20:38;29.50;;;21.45;;
4911;SDS011;2471;47.056;8.350;2023-12-20T05:23:04;32.42;;;22.35;;
4911;SDS011;2471;47.056;8.350;2023-12-20T05:25:30;36.65;;;23.80;;
4911;SDS011;2471;47.056;8.350;2023-12-20T05:27:56;30.67;;;22.80;;
4911;SDS011;2471;47.056;8.350;2023-12-20T05:30:22;33.70;;;22.93;;
4911;SDS011;2471;47.056;8.350;2023-12-20T05:32:48;35.88;;;24.20;;
4911;SDS011;2471;47.056;8.350;2023-12-20T05:35:14;35.17;;;24.08;;
4911;SDS011;2471;47.056;8.350;2023-12-20T05:37:41;38.53;;;24.15;;
4911;SDS011;2471;47.056;8.350;2023-12-20T05:40:07;36.35;;;24.55;;
4911;SDS011;2471;47.056;8.350;2023-12-20T05:42:35;37.92;;;26.05;;
4911;SDS011;2471;47.056;8.350;2023-12-20T05:45:01;34.90;;;24.30;;
4911;SDS011;2471;47.056;8.350;2023-12-20T05:47:27;35.08;;;22.52;;
4911;SDS011;2471;47.056;8.350;2023-12-20T05:49:53;34.95;;;24.30;;
4911;SDS011;2471;47.056;8.350;2023-12-20T05:52:19;38.83;;;24.08;;
4911;SDS011;2471;47.056;8.350;2023-12-20T05:54:45;38.50;;;24.40;;
4911;SDS011;2471;47.056;8.350;2023-12-20T05:57:11;35.90;;;25.38;;
4911;SDS011;2471;47.056;8.350;2023-12-20T05:59:37;38.42;;;26.00;;
4911;SDS011;2471;47.056;8.350;2023-12-20T06:02:03;37.90;;;25.02;;
4911;SDS011;2471;47.056;8.350;2023-12-20T06:04:29;37.33;;;25.08;;
4911;SDS011;2471;47.056;8.350;2023-12-20T06:06:55;34.72;;;23.98;;
4911;SDS011;2471;47.056;8.350;2023-12-20T06:09:21;38.38;;;24.98;;
4911;SDS011;2471;47.056;8.350;2023-12-20T06:11:47;36.60;;;24.42;;
4911;SDS011;2471;47.056;8.350;2023-12-20T06:14:13;37.05;;;25.33;;
4911;SDS011;2471;47.056;8.350;2023-12-20T06:16:39;39.03;;;25.98;;
4911;SDS011;2471;47.056;8.350;2023-12-20T06:19:05;38.05;;;25.45;;
4911;SDS011;2471;47.056;8.350;2023-12-20T06:21:31;37.60;;;24.85;;
4911;SDS011;2471;47.056;8.350;2023-12-20T06:23:58;35.97;;;25.95;;
4911;SDS011;2471;47.056;8.350;2023-12-20T06:26:24;37.28;;;24.65;;
4911;SDS011;2471;47.056;8.350;2023-12-20T06:28:50;36.65;;;25.48;;
4911;SDS011;2471;47.056;8.350;2023-12-20T06:31:16;37.80;;;26.27;;
4911;SDS011;2471;47.056;8.350;2023-12-20T06:33:42;33.58;;;24.90;;
4911;SDS011;2471;47.056;8.350;2023-12-20T06:36:12;35.50;;;25.20;;
4911;SDS011;2471;47.056;8.350;2023-12-20T06:38:38;33.65;;;24.92;;
4911;SDS011;2471;47.056;8.350;2023-12-20T06:41:04;35.42;;;25.30;;
4911;SDS011;2471;47.056;8.350;2023-12-20T06:43:31;38.20;;;25.80;;
4911;SDS011;2471;47.056;8.350;2023-12-20T06:45:57;33.30;;;24.10;;
4911;SDS011;2471;47.056;8.350;2023-12-20T06:48:23;34.20;;;23.95;;
4911;SDS011;2471;47.056;8.350;2023-12-20T06:50:49;35.80;;;24.55;;
4911;SDS011;2471;47.056;8.350;2023-12-20T06:53:15;36.43;;;25.30;;
4911;SDS011;2471;47.056;8.350;2023-12-20T06:55:41;39.75;;;26.92;;
4911;SDS011;2471;47.056;8.350;2023-12-20T06:58:07;41.22;;;27.63;;
4911;SDS011;2471;47.056;8.350;2023-12-20T07:00:34;39.47;;;27.67;;
4911;SDS011;2471;47.056;8.350;2023-12-20T07:03:00;40.30;;;27.30;;
4911;SDS011;2471;47.056;8.350;2023-12-20T07:05:26;43.58;;;28.92;;
4911;SDS011;2471;47.056;8.350;2023-12-20T07:07:52;43.50;;;27.90;;
4911;SDS011;2471;47.056;8.350;2023-12-20T07:10:18;38.50;;;26.75;;
4911;SDS011;2471;47.056;8.350;2023-12-20T07:12:44;44.42;;;28.85;;
4911;SDS011;2471;47.056;8.350;2023-12-20T07:15:10;40.80;;;28.02;;
4911;SDS011;2471;47.056;8.350;2023-12-20T07:17:36;33.97;;;25.10;;
4911;SDS011;2471;47.056;8.350;2023-12-20T07:20:02;32.67;;;24.03;;
4911;SDS011;2471;47.056;8.350;2023-12-20T07:22:32;39.50;;;28.27;;
4911;SDS011;2471;47.056;8.350;2023-12-20T07:24:58;44.95;;;28.95;;
4911;SDS011;2471;47.056;8.350;2023-12-20T07:27:24;42.50;;;29.00;;
4911;SDS011;2471;47.056;8.350;2023-12-20T07:29:50;43.17;;;28.38;;
4911;SDS011;2471;47.056;8.350;2023-12-20T07:32:16;34.38;;;25.30;;
4911;SDS011;2471;47.056;8.350;2023-12-20T07:34:42;36.20;;;25.73;;
4911;SDS011;2471;47.056;8.350;2023-12-20T07:37:08;32.58;;;24.92;;
4911;SDS011;2471;47.056;8.350;2023-12-20T07:39:36;32.20;;;23.90;;
4911;SDS011;2471;47.056;8.350;2023-12-20T07:42:02;34.35;;;24.40;;
4911;SDS011;2471;47.056;8.350;2023-12-20T07:44:28;37.38;;;27.17;;
4911;SDS011;2471;47.056;8.350;2023-12-20T07:46:54;42.22;;;28.90;;
4911;SDS011;2471;47.056;8.350;2023-12-20T07:49:20;42.38;;;29.55;;
4911;SDS011;2471;47.056;8.350;2023-12-20T07:51:46;40.92;;;28.25;;
4911;SDS011;2471;47.056;8.350;2023-12-20T07:54:12;38.85;;;26.58;;
4911;SDS011;2471;47.056;8.350;2023-12-20T07:56:38;37.67;;;26.65;;
4911;SDS011;2471;47.056;8.350;2023-12-20T07:59:05;37.67;;;25.05;;
4911;SDS011;2471;47.056;8.350;2023-12-20T08:01:31;37.47;;;26.20;;
4911;SDS011;2471;47.056;8.350;2023-12-20T08:03:57;33.92;;;24.77;;
4911;SDS011;2471;47.056;8.350;2023-12-20T08:06:23;38.63;;;26.65;;
4911;SDS011;2471;47.056;8.350;2023-12-20T08:08:49;35.00;;;24.55;;
4911;SDS011;2471;47.056;8.350;2023-12-20T08:11:15;36.70;;;25.10;;
4911;SDS011;2471;47.056;8.350;2023-12-20T08:13:42;38.17;;;26.48;;
4911;SDS011;2471;47.056;8.350;2023-12-20T08:16:08;36.17;;;25.05;;
4911;SDS011;2471;47.056;8.350;2023-12-20T08:18:34;36.57;;;25.00;;
4911;SDS011;2471;47.056;8.350;2023-12-20T08:21:00;30.20;;;21.97;;
4911;SDS011;2471;47.056;8.350;2023-12-20T08:23:27;29.98;;;22.60;;
4911;SDS011;2471;47.056;8.350;2023-12-20T08:25:53;34.72;;;24.85;;
4911;SDS011;2471;47.056;8.350;2023-12-20T08:28:19;36.08;;;24.40;;
4911;SDS011;2471;47.056;8.350;2023-12-20T08:30:45;35.83;;;25.30;;
4911;SDS011;2471;47.056;8.350;2023-12-20T08:33:11;38.78;;;25.98;;
4911;SDS011;2471;47.056;8.350;2023-12-20T08:35:38;32.73;;;23.33;;
4911;SDS011;2471;47.056;8.350;2023-12-20T08:38:05;32.58;;;23.02;;
4911;SDS011;2471;47.056;8.350;2023-12-20T08:40:31;30.45;;;21.77;;
4911;SDS011;2471;47.056;8.350;2023-12-20T08:42:57;31.40;;;21.90;;
4911;SDS011;2471;47.056;8.350;2023-12-20T08:45:23;27.50;;;21.90;;
4911;SDS011;2471;47.056;8.350;2023-12-20T08:47:49;27.27;;;21.27;;
4911;SDS011;2471;47.056;8.350;2023-12-20T08:50:15;26.02;;;19.52;;
4911;SDS011;2471;47.056;8.350;2023-12-20T08:52:41;25.38;;;19.40;;
4911;SDS011;2471;47.056;8.350;2023-12-20T08:55:07;26.35;;;19.58;;
4911;SDS011;2471;47.056;8.350;2023-12-20T08:57:35;23.48;;;19.05;;
4911;SDS011;2471;47.056;8.350;2023-12-20T09:00:01;25.52;;;18.58;;
4911;SDS011;2471;47.056;8.350;2023-12-20T09:02:28;26.25;;;19.33;;
4911;SDS011;2471;47.056;8.350;2023-12-20T09:04:54;26.50;;;19.55;;
4911;SDS011;2471;47.056;8.350;2023-12-20T09:07:23;25.13;;;20.13;;
4911;SDS011;2471;47.056;8.350;2023-12-20T09:09:50;25.55;;;19.27;;
4911;SDS011;2471;47.056;8.350;2023-12-20T09:12:17;24.43;;;18.83;;
4911;SDS011;2471;47.056;8.350;2023-12-20T09:14:44;23.02;;;17.90;;
4911;SDS011;2471;47.056;8.350;2023-12-20T09:17:10;27.52;;;19.30;;
4911;SDS011;2471;47.056;8.350;2023-12-20T09:19:37;26.20;;;19.70;;
4911;SDS011;2471;47.056;8.350;2023-12-20T09:22:03;27.20;;;20.25;;
4911;SDS011;2471;47.056;8.350;2023-12-20T09:24:30;27.85;;;20.30;;
4911;SDS011;2471;47.056;8.350;2023-12-20T09:26:56;24.05;;;19.58;;
4911;SDS011;2471;47.056;8.350;2023-12-20T09:29:22;29.42;;;21.08;;
4911;SDS011;2471;47.056;8.350;2023-12-20T09:31:49;31.95;;;21.63;;
4911;SDS011;2471;47.056;8.350;2023-12-20T09:34:15;28.35;;;20.70;;
4911;SDS011;2471;47.056;8.350;2023-12-20T09:36:44;29.20;;;22.00;;
4911;SDS011;2471;47.056;8.350;2023-12-20T09:39:19;26.57;;;20.40;;
4911;SDS011;2471;47.056;8.350;2023-12-20T09:42:10;27.67;;;20.85;;
4911;SDS011;2471;47.056;8.350;2023-12-20T09:44:34;27.90;;;20.10;;
4911;SDS011;2471;47.056;8.350;2023-12-20T09:47:04;28.10;;;19.23;;
4911;SDS011;2471;47.056;8.350;2023-12-20T09:49:30;24.80;;;19.40;;
4911;SDS011;2471;47.056;8.350;2023-12-20T09:51:58;23.15;;;18.50;;
4911;SDS011;2471;47.056;8.350;2023-12-20T09:54:25;23.92;;;19.10;;
4911;SDS011;2471;47.056;8.350;2023-12-20T09:56:52;23.85;;;17.85;;
4911;SDS011;2471;47.056;8.350;2023-12-20T09:59:18;20.63;;;16.05;;
4911;SDS011;2471;47.056;8.350;2023-12-20T10:01:44;19.90;;;15.95;;
4911;SDS011;2471;47.056;8.350;2023-12-20T10:04:11;21.77;;;16.55;;
4911;SDS011;2471;47.056;8.350;2023-12-20T10:06:41;22.08;;;16.13;;
4911;SDS011;2471;47.056;8.350;2023-12-20T10:09:08;21.52;;;17.48;;
4911;SDS011;2471;47.056;8.350;2023-12-20T10:11:37;22.30;;;17.37;;
4911;SDS011;2471;47.056;8.350;2023-12-20T10:14:04;23.38;;;17.80;;
4911;SDS011;2471;47.056;8.350;2023-12-20T10:16:30;19.27;;;16.73;;
4911;SDS011;2471;47.056;8.350;2023-12-20T10:18:56;22.67;;;16.50;;
4911;SDS011;2471;47.056;8.350;2023-12-20T10:21:22;20.90;;;16.10;;
4911;SDS011;2471;47.056;8.350;2023-12-20T10:23:51;20.53;;;16.43;;
4911;SDS011;2471;47.056;8.350;2023-12-20T10:26:24;22.40;;;16.50;;
4911;SDS011;2471;47.056;8.350;2023-12-20T10:28:54;20.27;;;15.80;;
4911;SDS011;2471;47.056;8.350;2023-12-20T10:31:27;20.17;;;15.82;;
4911;SDS011;2471;47.056;8.350;2023-12-20T10:33:53;18.90;;;16.42;;
4911;SDS011;2471;47.056;8.350;2023-12-20T10:36:19;17.42;;;14.50;;
4911;SDS011;2471;47.056;8.350;2023-12-20T10:38:46;16.45;;;14.35;;
4911;SDS011;2471;47.056;8.350;2023-12-20T10:41:14;17.33;;;14.20;;
4911;SDS011;2471;47.056;8.350;2023-12-20T10:43:42;16.33;;;12.80;;
4911;SDS011;2471;47.056;8.350;2023-12-20T10:46:08;13.57;;;12.05;;
4911;SDS011;2471;47.056;8.350;2023-12-20T10:48:34;17.13;;;12.70;;
4911;SDS011;2471;47.056;8.350;2023-12-20T10:51:00;15.70;;;14.00;;
4911;SDS011;2471;47.056;8.350;2023-12-20T10:53:27;15.32;;;12.55;;
4911;SDS011;2471;47.056;8.350;2023-12-20T10:55:54;14.43;;;11.87;;
4911;SDS011;2471;47.056;8.350;2023-12-20T10:58:24;13.18;;;11.73;;
4911;SDS011;2471;47.056;8.350;2023-12-20T11:00:51;14.25;;;11.00;;
4911;SDS011;2471;47.056;8.350;2023-12-20T11:03:21;10.82;;;9.73;;
4911;SDS011;2471;47.056;8.350;2023-12-20T11:06:00;10.75;;;9.13;;
4911;SDS011;2471;47.056;8.350;2023-12-20T11:11:04;12.55;;;9.30;;
4911;SDS011;2471;47.056;8.350;2023-12-20T11:13:34;14.02;;;10.00;;
4911;SDS011;2471;47.056;8.350;2023-12-20T11:16:02;13.43;;;10.40;;
4911;SDS011;2471;47.056;8.350;2023-12-20T11:18:31;10.20;;;9.05;;
4911;SDS011;2471;47.056;8.350;2023-12-20T11:21:01;12.68;;;10.50;;
4911;SDS011;2471;47.056;8.350;2023-12-20T11:23:29;10.88;;;8.90;;
4911;SDS011;2471;47.056;8.350;2023-12-20T11:25:56;8.90;;;8.00;;
4911;SDS011;2471;47.056;8.350;2023-12-20T11:28:25;11.32;;;8.95;;
4911;SDS011;2471;47.056;8.350;2023-12-20T11:33:21;9.85;;;8.50;;
4911;SDS011;2471;47.056;8.350;2023-12-20T11:35:47;10.23;;;8.20;;
4911;SDS011;2471;47.056;8.350;2023-12-20T11:38:13;10.45;;;8.13;;
4911;SDS011;2471;47.056;8.350;2023-12-20T11:40:41;9.10;;;8.20;;
4911;SDS011;2471;47.056;8.350;2023-12-20T11:43:07;8.30;;;7.30;;
4911;SDS011;2471;47.056;8.350;2023-12-20T11:45:33;8.63;;;7.40;;
4911;SDS011;2471;47.056;8.350;2023-12-20T11:48:00;10.82;;;8.68;;
4911;SDS011;2471;47.056;8.350;2023-12-20T11:50:27;8.18;;;7.18;;
4911;SDS011;2471;47.056;8.350;2023-12-20T11:52:54;7.90;;;6.65;;
4911;SDS011;2471;47.056;8.350;2023-12-20T11:55:21;9.00;;;6.40;;
4911;SDS011;2471;47.056;8.350;2023-12-20T11:57:48;6.50;;;5.90;;
4911;SDS011;2471;47.056;8.350;2023-12-20T12:00:15;6.80;;;6.10;;
4911;SDS011;2471;47.056;8.350;2023-12-20T12:02:41;6.40;;;5.80;;
4911;SDS011;2471;47.056;8.350;2023-12-20T12:05:08;7.10;;;6.40;;
4911;SDS011;2471;47.056;8.350;2023-12-20T12:07:34;9.18;;;6.85;;
4911;SDS011;2471;47.056;8.350;2023-12-20T12:10:00;7.40;;;6.70;;
4911;SDS011;2471;47.056;8.350;2023-12-20T12:12:26;8.93;;;7.20;;
4911;SDS011;2471;47.056;8.350;2023-12-20T12:14:53;8.25;;;7.10;;
4911;SDS011;2471;47.056;8.350;2023-12-20T12:17:19;8.35;;;7.30;;
4911;SDS011;2471;47.056;8.350;2023-12-20T12:19:45;9.02;;;7.65;;
4911;SDS011;2471;47.056;8.350;2023-12-20T12:22:12;9.03;;;6.83;;
4911;SDS011;2471;47.056;8.350;2023-12-20T12:24:45;7.70;;;6.90;;
4911;SDS011;2471;47.056;8.350;2023-12-20T12:27:12;8.48;;;6.70;;
4911;SDS011;2471;47.056;8.350;2023-12-20T12:29:38;7.45;;;6.75;;
4911;SDS011;2471;47.056;8.350;2023-12-20T12:32:08;8.48;;;7.00;;
4911;SDS011;2471;47.056;8.350;2023-12-20T12:34:34;7.75;;;6.95;;
4911;SDS011;2471;47.056;8.350;2023-12-20T12:37:01;7.00;;;6.30;;
4911;SDS011;2471;47.056;8.350;2023-12-20T12:39:27;8.90;;;7.70;;
4911;SDS011;2471;47.056;8.350;2023-12-20T12:41:55;10.13;;;7.50;;
4911;SDS011;2471;47.056;8.350;2023-12-20T12:44:22;6.13;;;5.53;;
4911;SDS011;2471;47.056;8.350;2023-12-20T12:46:50;7.18;;;6.00;;
4911;SDS011;2471;47.056;8.350;2023-12-20T12:49:16;7.57;;;5.90;;
4911;SDS011;2471;47.056;8.350;2023-12-20T12:51:42;8.13;;;6.72;;
4911;SDS011;2471;47.056;8.350;2023-12-20T12:54:08;7.30;;;6.60;;
4911;SDS011;2471;47.056;8.350;2023-12-20T12:56:35;7.47;;;6.70;;
4911;SDS011;2471;47.056;8.350;2023-12-20T12:59:01;6.10;;;5.50;;
4911;SDS011;2471;47.056;8.350;2023-12-20T13:01:27;6.10;;;4.75;;
4911;SDS011;2471;47.056;8.350;2023-12-20T13:03:53;8.50;;;5.80;;
4911;SDS011;2471;47.056;8.350;2023-12-20T13:06:19;6.20;;;5.28;;
4911;SDS011;2471;47.056;8.350;2023-12-20T13:08:45;5.75;;;5.25;;
4911;SDS011;2471;47.056;8.350;2023-12-20T13:11:11;6.22;;;5.65;;
4911;SDS011;2471;47.056;8.350;2023-12-20T13:13:37;7.80;;;4.88;;
4911;SDS011;2471;47.056;8.350;2023-12-20T13:16:04;6.15;;;5.50;;
4911;SDS011;2471;47.056;8.350;2023-12-20T13:18:30;6.05;;;5.55;;
4911;SDS011;2471;47.056;8.350;2023-12-20T13:20:56;4.80;;;4.40;;
4911;SDS011;2471;47.056;8.350;2023-12-20T13:23:22;4.93;;;4.07;;
4911;SDS011;2471;47.056;8.350;2023-12-20T13:25:48;4.50;;;3.70;;
4911;SDS011;2471;47.056;8.350;2023-12-20T13:28:14;6.03;;;3.40;;
4911;SDS011;2471;47.056;8.350;2023-12-20T13:30:40;5.22;;;4.45;;
4911;SDS011;2471;47.056;8.350;2023-12-20T13:33:06;4.20;;;3.90;;
4911;SDS011;2471;47.056;8.350;2023-12-20T13:35:33;5.53;;;4.20;;
4911;SDS011;2471;47.056;8.350;2023-12-20T13:38:00;5.03;;;4.40;;
4911;SDS011;2471;47.056;8.350;2023-12-20T13:40:26;4.20;;;3.90;;
4911;SDS011;2471;47.056;8.350;2023-12-20T13:42:53;4.65;;;4.10;;
4911;SDS011;2471;47.056;8.350;2023-12-20T13:45:20;4.40;;;3.88;;
4911;SDS011;2471;47.056;8.350;2023-12-20T13:47:46;3.25;;;3.05;;
4911;SDS011;2471;47.056;8.350;2023-12-20T13:50:12;6.43;;;4.05;;
4911;SDS011;2471;47.056;8.350;2023-12-20T13:52:38;4.13;;;3.58;;
4911;SDS011;2471;47.056;8.350;2023-12-20T13:55:04;2.85;;;2.60;;
4911;SDS011;2471;47.056;8.350;2023-12-20T13:57:32;4.00;;;3.60;;
4911;SDS011;2471;47.056;8.350;2023-12-20T13:59:59;3.63;;;3.33;;
4911;SDS011;2471;47.056;8.350;2023-12-20T14:02:25;5.85;;;3.60;;
4911;SDS011;2471;47.056;8.350;2023-12-20T14:04:52;3.70;;;3.40;;
4911;SDS011;2471;47.056;8.350;2023-12-20T14:07:18;3.70;;;3.40;;
4911;SDS011;2471;47.056;8.350;2023-12-20T14:09:44;3.85;;;3.55;;
4911;SDS011;2471;47.056;8.350;2023-12-20T14:12:13;2.92;;;2.72;;
4911;SDS011;2471;47.056;8.350;2023-12-20T14:14:39;3.10;;;2.80;;
4911;SDS011;2471;47.056;8.350;2023-12-20T14:17:05;4.03;;;2.95;;
4911;SDS011;2471;47.056;8.350;2023-12-20T14:19:32;4.05;;;2.40;;
4911;SDS011;2471;47.056;8.350;2023-12-20T14:21:58;2.30;;;2.10;;
4911;SDS011;2471;47.056;8.350;2023-12-20T14:24:26;2.00;;;1.90;;
4911;SDS011;2471;47.056;8.350;2023-12-20T14:26:52;2.00;;;1.80;;
4911;SDS011;2471;47.056;8.350;2023-12-20T14:29:18;4.63;;;3.55;;
4911;SDS011;2471;47.056;8.350;2023-12-20T14:31:44;3.60;;;1.83;;
4911;SDS011;2471;47.056;8.350;2023-12-20T14:34:10;2.10;;;2.00;;
4911;SDS011;2471;47.056;8.350;2023-12-20T14:36:37;1.70;;;1.60;;
4911;SDS011;2471;47.056;8.350;2023-12-20T14:39:03;2.03;;;1.80;;
4911;SDS011;2471;47.056;8.350;2023-12-20T14:41:30;2.60;;;2.00;;
4911;SDS011;2471;47.056;8.350;2023-12-20T14:43:56;2.00;;;1.90;;
4911;SDS011;2471;47.056;8.350;2023-12-20T14:46:22;1.87;;;1.60;;
4911;SDS011;2471;47.056;8.350;2023-12-20T14:48:48;2.97;;;2.10;;
4911;SDS011;2471;47.056;8.350;2023-12-20T14:51:14;3.13;;;1.90;;
4911;SDS011;2471;47.056;8.350;2023-12-20T14:53:40;2.20;;;1.90;;